Time;durP1;ratioP1;P1;durP2;ratioP2;P2;SDS_P1;SDS_P2;PMS_P1;PMS_P2;Temp;Humidity;BMP_temperature;BMP_pressure;BME280_temperature;BME280_humidity;BME280_pressure;Samples;Min_cycle;Max_cycle;Signal;HPM_P1;HPM_P2
2022/03/04 00:00:29;;;;;;;19.50;8.63;;;-0.80;99.90;;;;;;5052059;28;20045;-62
2022/03/04 00:02:56;;;;;;;17.50;8.05;;;-0.80;99.90;;;;;;5051976;28;20037;-61
2022/03/04 00:05:24;;;;;;;20.08;8.13;;;-0.90;99.90;;;;;;5033061;28;20068;-61
2022/03/04 00:07:52;;;;;;;20.33;8.02;;;-0.90;99.90;;;;;;5051432;28;20037;-62
2022/03/04 00:10:19;;;;;;;16.27;7.68;;;-0.90;99.90;;;;;;5052053;28;20132;-62
2022/03/04 00:12:46;;;;;;;17.05;7.47;;;-0.80;99.90;;;;;;5051275;28;20501;-62
2022/03/04 00:15:12;;;;;;;15.38;6.53;;;-0.80;99.90;;;;;;5051267;28;20041;-62
2022/03/04 00:17:39;;;;;;;18.42;8.20;;;-0.90;99.90;;;;;;5033740;28;20037;-62
2022/03/04 00:20:08;;;;;;;17.75;8.15;;;-1.00;99.90;;;;;;5051742;28;20090;-61
2022/03/04 00:22:35;;;;;;;16.77;7.88;;;-1.00;99.90;;;;;;5051177;28;20120;-62
2022/03/04 00:25:03;;;;;;;;;;;-1.00;99.90;;;;;;5051902;28;20094;-61
2022/03/04 00:27:30;;;;;;;17.33;7.63;;;-1.00;99.90;;;;;;5050943;28;19929;-62
2022/03/04 00:29:56;;;;;;;12.90;5.40;;;-0.90;99.90;;;;;;5051644;28;20041;-62
2022/03/04 00:32:24;;;;;;;19.67;8.25;;;-1.00;99.90;;;;;;5051069;28;20037;-62
2022/03/04 00:34:51;;;;;;;17.88;7.20;;;-0.90;99.90;;;;;;5051417;28;20056;-61
2022/03/04 00:37:17;;;;;;;17.00;7.95;;;-0.90;99.90;;;;;;5051316;28;20114;-62
2022/03/04 00:39:45;;;;;;;16.40;7.68;;;-0.90;99.90;;;;;;5050235;28;20120;-62
2022/03/04 00:42:11;;;;;;;19.15;8.48;;;-0.90;99.90;;;;;;5051371;28;20663;-61
2022/03/04 00:44:38;;;;;;;17.38;7.53;;;-0.90;99.90;;;;;;5051438;28;20048;-61
2022/03/04 00:47:05;;;;;;;17.63;7.88;;;-0.90;99.90;;;;;;5051111;28;20072;-61
2022/03/04 00:49:33;;;;;;;;;;;-0.90;99.90;;;;;;5050877;28;20045;-62
2022/03/04 00:52:00;;;;;;;20.27;8.07;;;-1.10;99.90;;;;;;5033494;28;19929;-62
2022/03/04 00:54:28;;;;;;;17.45;8.00;;;-1.30;99.90;;;;;;5051311;28;20052;-61
2022/03/04 00:56:55;;;;;;;18.70;8.10;;;-1.30;99.90;;;;;;5051168;28;20045;-62
2022/03/04 00:59:22;;;;;;;19.48;8.27;;;-1.40;99.90;;;;;;5032645;28;20445;-61
2022/03/04 01:01:52;;;;;;;21.13;8.60;;;-1.40;99.90;;;;;;5051159;28;20048;-62
2022/03/04 01:04:19;;;;;;;17.88;7.97;;;-1.40;99.90;;;;;;5051263;28;20055;-62
2022/03/04 01:06:46;;;;;;;17.42;7.55;;;-1.30;99.90;;;;;;5050640;28;20557;-62
2022/03/04 01:09:13;;;;;;;19.60;8.00;;;-1.30;99.90;;;;;;5050481;28;20065;-62
2022/03/04 01:11:40;;;;;;;17.75;8.27;;;-1.30;99.90;;;;;;5051315;28;20048;-62
2022/03/04 01:14:08;;;;;;;18.05;8.18;;;-1.20;99.90;;;;;;5051261;28;20040;-61
2022/03/04 01:16:35;;;;;;;19.45;8.25;;;-1.30;99.90;;;;;;5050023;28;20037;-62
2022/03/04 01:19:03;;;;;;;19.90;7.32;;;-1.40;99.90;;;;;;5050431;28;20053;-62
2022/03/04 01:21:30;;;;;;;;;;;-1.50;99.90;;;;;;5051590;28;20045;-62
2022/03/04 01:23:57;;;;;;;17.40;7.55;;;-1.50;99.90;;;;;;5050417;28;20416;-58
2022/03/04 01:26:24;;;;;;;13.82;5.95;;;-1.50;99.90;;;;;;5050575;28;20045;-62
2022/03/04 01:28:50;;;;;;;17.90;7.75;;;-1.50;99.90;;;;;;5050701;28;20052;-62
2022/03/04 01:31:17;;;;;;;17.58;7.32;;;-1.40;99.90;;;;;;5051014;28;20063;-61
2022/03/04 01:33:44;;;;;;;19.45;8.90;;;-1.40;99.90;;;;;;5050426;28;20482;-62
2022/03/04 01:36:11;;;;;;;20.27;8.40;;;-1.50;99.90;;;;;;5050786;28;20057;-62
2022/03/04 01:38:38;;;;;;;19.50;9.00;;;-1.50;99.90;;;;;;5050730;28;20048;-61
2022/03/04 01:41:05;;;;;;;21.52;7.50;;;-1.50;99.90;;;;;;5050885;28;20041;-61
2022/03/04 01:43:32;;;;;;;18.77;8.23;;;-1.50;99.90;;;;;;5050319;28;20045;-62
2022/03/04 01:46:12;;;;;;;20.63;8.77;;;-1.60;99.90;;;;;;5050637;28;20032;-62
2022/03/04 01:48:41;;;;;;;17.95;7.85;;;-1.60;99.90;;;;;;5050470;28;20037;-62
2022/03/04 01:51:09;;;;;;;21.35;8.20;;;-1.60;99.90;;;;;;5050125;28;20571;-62
2022/03/04 01:53:38;;;;;;;21.50;8.95;;;-1.60;99.90;;;;;;5035935;28;20033;-61
2022/03/04 01:56:05;;;;;;;19.67;7.95;;;-1.60;99.90;;;;;;5054402;28;20037;-62
2022/03/04 01:58:32;;;;;;;22.23;9.55;;;-1.50;99.90;;;;;;5054259;28;20098;-62
2022/03/04 02:01:00;;;;;;;19.70;8.52;;;-1.60;99.90;;;;;;5035912;28;20071;-62
2022/03/04 02:03:27;;;;;;;20.00;8.65;;;-1.70;99.90;;;;;;5054053;28;20120;-62
2022/03/04 02:05:54;;;;;;;25.08;8.40;;;-1.60;99.90;;;;;;5054336;28;20100;-61
2022/03/04 02:08:21;;;;;;;18.10;8.68;;;-1.60;99.90;;;;;;5053344;28;20041;-62
2022/03/04 02:10:48;;;;;;;18.58;7.70;;;-1.60;99.90;;;;;;5054347;28;20102;-61
2022/03/04 02:13:16;;;;;;;20.13;8.38;;;-1.60;99.90;;;;;;5054226;28;20116;-62
2022/03/04 02:15:44;;;;;;;20.25;8.73;;;-1.50;99.90;;;;;;5054032;28;20598;-62
2022/03/04 02:18:13;;;;;;;18.55;8.90;;;-1.50;99.90;;;;;;5052698;28;20064;-61
2022/03/04 02:20:44;;;;;;;22.92;9.13;;;-1.50;99.90;;;;;;5053923;28;20045;-61
2022/03/04 02:23:13;;;;;;;23.60;9.60;;;-1.60;99.90;;;;;;5054165;28;20103;-62
2022/03/04 02:25:44;;;;;;;21.50;10.02;;;-1.60;99.90;;;;;;5035528;28;20052;-62
2022/03/04 02:28:11;;;;;;;22.30;10.00;;;-1.60;99.90;;;;;;5053291;28;20055;-62
2022/03/04 02:30:38;;;;;;;16.65;6.20;;;-1.60;99.90;;;;;;5053579;28;20448;-62
2022/03/04 02:33:06;;;;;;;22.38;9.25;;;-1.70;99.90;;;;;;5053831;28;20549;-62
2022/03/04 02:35:34;;;;;;;18.67;8.63;;;-1.80;99.90;;;;;;5057819;22;20033;-54
2022/03/04 02:38:02;;;;;;;22.08;10.02;;;-1.80;99.90;;;;;;5032071;28;20088;-51
2022/03/04 02:40:29;;;;;;;21.85;9.30;;;-1.80;99.90;;;;;;5029329;28;20069;-53
2022/03/04 02:42:56;;;;;;;26.65;10.65;;;-1.90;99.90;;;;;;5033531;28;20037;-54
2022/03/04 02:45:23;;;;;;;25.65;10.80;;;-1.90;99.90;;;;;;5027663;28;20048;-51
2022/03/04 02:47:51;;;;;;;24.65;10.65;;;-1.90;99.90;;;;;;5031148;28;20068;-56
2022/03/04 02:50:18;;;;;;;29.00;10.80;;;-2.00;99.90;;;;;;5033737;28;20050;-52
2022/03/04 02:52:45;;;;;;;21.67;9.82;;;-2.10;99.90;;;;;;5033695;28;20053;-53
2022/03/04 02:55:12;;;;;;;27.08;10.07;;;-2.10;99.90;;;;;;5028341;28;20430;-51
2022/03/04 02:57:41;;;;;;;22.80;9.77;;;-2.20;99.90;;;;;;5032921;28;20037;-50
2022/03/04 03:00:08;;;;;;;18.15;8.65;;;-2.20;99.90;;;;;;5033208;28;20053;-51
2022/03/04 03:02:36;;;;;;;20.75;8.77;;;-2.30;99.90;;;;;;5029782;28;20471;-53
2022/03/04 03:05:03;;;;;;;;;;;-2.30;99.90;;;;;;5030405;28;20033;-54
2022/03/04 03:07:30;;;;;;;19.17;7.70;;;-2.30;99.90;;;;;;5032756;28;19932;-52
2022/03/04 03:09:57;;;;;;;21.10;9.10;;;-2.30;99.90;;;;;;5033098;28;20444;-54
2022/03/04 03:12:24;;;;;;;20.40;9.50;;;-2.30;99.90;;;;;;5031171;28;20323;-55
2022/03/04 03:14:51;;;;;;;23.60;9.45;;;-2.20;99.90;;;;;;5033088;28;20048;-53
2022/03/04 03:17:18;;;;;;;21.55;9.60;;;-2.30;99.90;;;;;;5032888;28;20045;-53
2022/03/04 03:19:45;;;;;;;22.10;7.70;;;-2.40;99.90;;;;;;5032604;28;20045;-51
2022/03/04 03:22:14;;;;;;;18.52;8.35;;;-2.40;99.90;;;;;;5026886;28;20045;-56
2022/03/04 03:24:41;;;;;;;19.02;8.07;;;-2.40;99.90;;;;;;5032731;28;20060;-51
2022/03/04 03:27:08;;;;;;;17.77;8.07;;;-2.40;99.90;;;;;;5033037;28;20128;-54
2022/03/04 03:29:34;;;;;;;18.95;7.90;;;-2.30;99.90;;;;;;5032527;28;20121;-54
2022/03/04 03:32:02;;;;;;;19.10;7.88;;;-2.50;99.90;;;;;;5030660;28;20099;-54
2022/03/04 03:34:29;;;;;;;;;;;-2.40;99.90;;;;;;5033255;28;20087;-53
2022/03/04 03:36:56;;;;;;;15.82;7.95;;;-2.40;99.90;;;;;;5032562;28;19921;-54
2022/03/04 03:39:23;;;;;;;19.65;8.55;;;-2.30;99.90;;;;;;5030120;28;20067;-55
2022/03/04 03:41:50;;;;;;;19.80;8.30;;;-2.30;99.90;;;;;;5027798;28;20041;-55
2022/03/04 03:44:17;;;;;;;17.45;8.50;;;-2.30;99.90;;;;;;5032663;28;20045;-52
2022/03/04 03:46:44;;;;;;;19.80;8.55;;;-2.30;99.90;;;;;;5032511;28;20506;-54
2022/03/04 03:49:11;;;;;;;19.27;8.13;;;-2.30;99.90;;;;;;5026275;28;20092;-51
2022/03/04 03:51:38;;;;;;;18.10;8.27;;;-2.30;99.90;;;;;;5032492;28;20056;-54
2022/03/04 03:54:05;;;;;;;17.83;7.80;;;-2.30;99.90;;;;;;5032457;28;20205;-56
2022/03/04 03:56:31;;;;;;;21.27;8.95;;;-2.30;99.90;;;;;;5032214;28;20516;-55
2022/03/04 03:58:58;;;;;;;19.23;8.48;;;-2.30;99.90;;;;;;5026645;28;20124;-53
2022/03/04 04:01:25;;;;;;;19.80;9.20;;;-2.40;99.90;;;;;;5024214;28;20045;-54
2022/03/04 04:03:53;;;;;;;21.50;9.25;;;-2.50;99.90;;;;;;5032295;28;20045;-55
2022/03/04 04:06:19;;;;;;;16.27;7.65;;;-2.50;99.90;;;;;;5031343;28;20041;-53
2022/03/04 04:08:46;;;;;;;18.05;7.65;;;-2.50;99.90;;;;;;5026553;28;20116;-52
2022/03/04 04:11:14;;;;;;;17.45;8.05;;;-2.50;99.90;;;;;;5032103;28;20065;-54
2022/03/04 04:13:40;;;;;;;;;;;-2.50;99.90;;;;;;5032356;28;20052;-55
2022/03/04 04:16:07;;;;;;;20.15;8.52;;;-2.50;99.90;;;;;;5031282;28;19979;-55
2022/03/04 04:18:36;;;;;;;19.58;8.75;;;-2.60;99.90;;;;;;5024421;28;20049;-56
2022/03/04 04:21:06;;;;;;;22.50;9.60;;;-2.70;99.90;;;;;;5031787;28;20041;-53
2022/03/04 04:23:33;;;;;;;25.38;10.73;;;-2.70;99.90;;;;;;5031885;28;20039;-53
2022/03/04 04:26:00;;;;;;;21.83;9.82;;;-2.70;99.90;;;;;;5030038;28;20045;-55
2022/03/04 04:28:27;;;;;;;28.70;10.77;;;-2.70;99.90;;;;;;5031357;28;20041;-55
2022/03/04 04:30:54;;;;;;;24.38;10.45;;;-2.70;99.90;;;;;;5031206;28;20124;-55
2022/03/04 04:33:21;;;;;;;23.02;10.55;;;-2.70;99.90;;;;;;5031179;28;20045;-55
2022/03/04 04:35:51;;;;;;;22.08;9.10;;;-2.70;99.90;;;;;;5028807;28;20099;-56
2022/03/04 04:38:18;;;;;;;23.40;10.00;;;-2.70;99.90;;;;;;5029546;28;20046;-55
2022/03/04 04:40:45;;;;;;;15.10;7.07;;;-2.70;99.90;;;;;;5031072;28;20168;-54
2022/03/04 04:43:11;;;;;;;23.98;9.88;;;-2.70;99.90;;;;;;5031719;28;20125;-55
2022/03/04 04:45:39;;;;;;;28.13;9.93;;;-2.70;99.90;;;;;;5028708;28;20049;-53
2022/03/04 04:48:06;;;;;;;23.95;9.63;;;-2.70;99.90;;;;;;5031037;28;20046;-52
2022/03/04 04:50:33;;;;;;;;;;;-2.70;99.90;;;;;;5032016;28;20052;-52
2022/03/04 04:53:00;;;;;;;20.48;8.82;;;-2.80;99.90;;;;;;5026541;28;19922;-55
2022/03/04 04:55:27;;;;;;;24.33;8.73;;;-3.00;99.90;;;;;;5030951;28;20137;-56
2022/03/04 04:57:54;;;;;;;24.40;8.80;;;-3.00;99.90;;;;;;5031061;28;20044;-54
2022/03/04 05:00:21;;;;;;;24.85;8.65;;;-3.00;99.90;;;;;;5031578;28;20069;-52
2022/03/04 05:02:47;;;;;;;21.17;8.73;;;-3.10;99.90;;;;;;5029954;28;20037;-54
2022/03/04 05:05:14;;;;;;;18.73;8.45;;;-3.00;99.90;;;;;;5031242;28;20041;-55
2022/03/04 05:07:41;;;;;;;21.20;9.05;;;-3.00;99.90;;;;;;5030629;28;20398;-50
2022/03/04 05:10:08;;;;;;;19.80;7.68;;;-3.00;99.90;;;;;;5025397;28;20045;-51
2022/03/04 05:12:35;;;;;;;22.08;9.43;;;-2.90;99.90;;;;;;5031268;28;20120;-56
2022/03/04 05:15:02;;;;;;;19.25;7.68;;;-2.90;99.90;;;;;;5031146;28;20049;-51
2022/03/04 05:17:29;;;;;;;22.92;8.85;;;-2.90;99.90;;;;;;5026892;28;20046;-52
2022/03/04 05:19:56;;;;;;;15.23;5.97;;;-2.90;99.90;;;;;;5027368;28;20041;-53
2022/03/04 05:22:23;;;;;;;22.30;8.43;;;-2.90;99.90;;;;;;5030496;28;20050;-53
2022/03/04 05:24:50;;;;;;;21.23;9.18;;;-2.90;99.90;;;;;;5028065;28;20552;-53
2022/03/04 05:27:17;;;;;;;21.70;9.07;;;-3.00;99.90;;;;;;5030480;28;20045;-55
2022/03/04 05:29:43;;;;;;;21.33;8.98;;;-3.10;99.90;;;;;;5034828;28;20183;-53
2022/03/04 05:32:10;;;;;;;23.67;8.65;;;-3.20;99.90;;;;;;5035199;28;20048;-53
2022/03/04 05:34:37;;;;;;;25.05;8.98;;;-3.30;99.90;;;;;;5034807;28;20045;-53
2022/03/04 05:37:05;;;;;;;21.25;8.75;;;-3.30;99.90;;;;;;5033305;28;20490;-54
2022/03/04 05:39:31;;;;;;;;;;;-3.30;99.90;;;;;;5034935;28;20046;-53
2022/03/04 05:41:58;;;;;;;19.35;7.75;;;-3.20;99.90;;;;;;5034933;28;19928;-56
2022/03/04 05:44:25;;;;;;;21.02;8.25;;;-3.10;99.90;;;;;;5026271;28;20056;-50
2022/03/04 05:46:53;;;;;;;20.35;7.93;;;-3.10;99.90;;;;;;5034002;28;20065;-51
2022/03/04 05:49:19;;;;;;;22.63;8.85;;;-3.00;99.90;;;;;;5033917;28;20049;-55
2022/03/04 05:51:46;;;;;;;19.00;6.45;;;-3.10;99.90;;;;;;5034710;28;20050;-53
2022/03/04 05:54:13;;;;;;;20.88;9.32;;;-3.20;99.90;;;;;;5032683;28;20375;-55
2022/03/04 05:56:40;;;;;;;21.67;7.88;;;-3.30;99.90;;;;;;5034214;28;20049;-55
2022/03/04 05:59:07;;;;;;;17.95;8.05;;;-3.30;99.90;;;;;;5033067;28;20045;-54
2022/03/04 06:01:34;;;;;;;20.73;9.30;;;-3.20;99.90;;;;;;5034128;28;20046;-55
2022/03/04 06:04:01;;;;;;;28.13;9.70;;;-3.10;99.90;;;;;;5033131;28;20387;-53
2022/03/04 06:06:28;;;;;;;19.23;9.60;;;-3.20;99.90;;;;;;5033646;28;20497;-54
2022/03/04 06:08:54;;;;;;;13.23;6.18;;;-3.20;99.90;;;;;;5033556;28;20042;-52
2022/03/04 06:11:21;;;;;;;23.58;9.23;;;-3.20;99.90;;;;;;5033960;28;20065;-56
2022/03/04 06:13:48;;;;;;;28.73;8.65;;;-3.10;99.90;;;;;;5031033;28;20046;-54
2022/03/04 06:16:15;;;;;;;22.60;9.10;;;-3.10;99.90;;;;;;5033464;28;20064;-55
2022/03/04 06:18:41;;;;;;;22.17;8.98;;;-3.10;99.90;;;;;;5033384;28;20041;-55
2022/03/04 06:21:08;;;;;;;23.42;9.20;;;-3.20;99.90;;;;;;5033785;28;20103;-55
2022/03/04 06:23:35;;;;;;;26.10;9.48;;;-3.20;99.90;;;;;;5025861;28;20041;-54
2022/03/04 06:26:02;;;;;;;18.15;7.78;;;-3.30;99.90;;;;;;5033817;28;20041;-54
2022/03/04 06:28:29;;;;;;;22.25;8.88;;;-3.20;99.90;;;;;;5033640;28;20049;-56
2022/03/04 06:30:57;;;;;;;25.92;11.02;;;-3.20;99.90;;;;;;5022126;28;20744;-54
2022/03/04 06:33:32;;;;;;;24.88;10.38;;;-3.10;99.90;;;;;;5031380;28;20033;-53
2022/03/04 06:36:12;;;;;;;26.25;10.90;;;-3.00;99.90;;;;;;5033786;28;20472;-54
2022/03/04 06:38:42;;;;;;;29.00;12.10;;;-3.00;99.90;;;;;;5032573;28;20116;-52
2022/03/04 06:41:14;;;;;;;28.45;12.55;;;-2.90;99.90;;;;;;5027406;28;20438;-54
2022/03/04 06:43:42;;;;;;;25.15;11.30;;;-2.80;99.90;;;;;;5033536;28;20065;-54
2022/03/04 06:46:09;;;;;;;23.10;10.70;;;-2.80;99.90;;;;;;5033534;28;20045;-56
2022/03/04 06:48:36;;;;;;;38.80;12.63;;;-2.80;99.90;;;;;;5033318;28;20045;-54
2022/03/04 06:51:05;;;;;;;30.88;11.60;;;-2.70;99.90;;;;;;5032239;28;20040;-55
2022/03/04 06:53:32;;;;;;;;;;;-2.70;99.90;;;;;;5033966;28;20125;-52
2022/03/04 06:55:59;;;;;;;21.58;9.40;;;-2.70;99.90;;;;;;5033325;28;19928;-54
2022/03/04 06:58:26;;;;;;;26.38;10.88;;;-2.70;99.90;;;;;;5028646;28;20041;-56
2022/03/04 07:00:53;;;;;;;27.10;11.35;;;-2.70;99.90;;;;;;5033346;28;20064;-52
2022/03/04 07:03:20;;;;;;;;;;;-2.70;99.90;;;;;;5033391;28;20092;-53
2022/03/04 07:05:47;;;;;;;26.42;10.77;;;-2.60;99.90;;;;;;5030938;28;19932;-52
2022/03/04 07:08:14;;;;;;;31.48;11.40;;;-2.60;99.90;;;;;;5031950;28;20034;-53
2022/03/04 07:10:43;;;;;;;26.95;11.23;;;-2.50;99.90;;;;;;5033094;28;20049;-54
2022/03/04 07:13:11;;;;;;;27.77;12.23;;;-2.50;99.90;;;;;;5033271;28;20063;-55
2022/03/04 07:15:39;;;;;;;31.25;12.40;;;-2.40;99.90;;;;;;5025724;28;20049;-54
2022/03/04 07:18:06;;;;;;;26.50;11.65;;;-2.30;99.90;;;;;;5032342;28;20046;-52
2022/03/04 07:20:34;;;;;;;30.80;12.32;;;-2.20;99.90;;;;;;5033350;28;20041;-56
2022/03/04 07:23:01;;;;;;;29.70;12.05;;;-2.10;99.90;;;;;;5031171;28;20045;-54
2022/03/04 07:25:28;;;;;;;32.08;12.85;;;-2.00;99.90;;;;;;5032867;28;20520;-52
2022/03/04 07:27:55;;;;;;;34.00;12.80;;;-1.90;99.90;;;;;;5032569;28;20049;-54
2022/03/04 07:30:22;;;;;;;34.28;12.57;;;-1.80;99.90;;;;;;5030078;28;20068;-55
2022/03/04 07:32:49;;;;;;;31.17;11.43;;;-1.80;99.90;;;;;;5032726;28;20045;-52
2022/03/04 07:35:16;;;;;;;35.88;12.68;;;-1.80;99.90;;;;;;5032829;28;20057;-53
2022/03/04 07:37:43;;;;;;;34.60;13.07;;;-1.70;99.90;;;;;;5032058;28;20060;-55
2022/03/04 07:40:13;;;;;;;29.20;12.98;;;-1.60;99.90;;;;;;5025656;28;20479;-52
2022/03/04 07:42:40;;;;;;;40.53;13.27;;;-1.50;99.90;;;;;;5032537;28;20497;-55
2022/03/04 07:45:09;;;;;;;32.33;14.30;;;-1.40;99.90;;;;;;5032660;28;20428;-55
2022/03/04 07:47:37;;;;;;;32.50;13.80;;;-1.30;99.90;;;;;;5029271;28;20124;-52
2022/03/04 07:50:06;;;;;;;31.05;11.77;;;-1.30;99.90;;;;;;5029650;28;20038;-52
2022/03/04 07:52:33;;;;;;;31.70;13.00;;;-1.20;99.90;;;;;;5032120;28;20347;-54
2022/03/04 07:55:05;;;;;;;33.60;12.27;;;-1.20;99.90;;;;;;5032354;28;20045;-52
2022/03/04 07:57:32;;;;;;;27.38;11.45;;;-1.10;99.90;;;;;;5028430;28;20120;-52
2022/03/04 07:59:59;;;;;;;33.05;13.43;;;-1.00;99.90;;;;;;5032194;28;20048;-54
2022/03/04 08:02:26;;;;;;;20.42;9.02;;;-0.90;99.90;;;;;;5032488;28;20045;-54
2022/03/04 08:04:53;;;;;;;33.10;12.98;;;-0.80;99.90;;;;;;5025522;28;20038;-53
2022/03/04 08:07:20;;;;;;;28.90;12.43;;;-0.80;99.90;;;;;;5031162;28;20045;-53
2022/03/04 08:09:48;;;;;;;29.23;12.38;;;-0.60;99.90;;;;;;5032159;28;20498;-52
2022/03/04 08:12:16;;;;;;;28.08;12.50;;;-0.60;99.90;;;;;;5029771;28;20056;-55
2022/03/04 08:14:43;;;;;;;30.13;12.38;;;-0.50;99.90;;;;;;5026592;28;20429;-52
2022/03/04 08:17:09;;;;;;;23.73;11.23;;;-0.40;99.90;;;;;;5031936;28;20045;-52
2022/03/04 08:19:39;;;;;;;37.70;12.73;;;-0.20;99.90;;;;;;5031526;28;20041;-56
2022/03/04 08:22:06;;;;;;;30.02;12.30;;;-0.10;99.90;;;;;;5026490;28;20046;-56
2022/03/04 08:24:52;;;;;;;25.08;11.65;;;0.00;99.90;;;;;;5031837;28;20050;-52
2022/03/04 08:27:21;;;;;;;25.38;12.88;;;0.10;99.90;;;;;;5031639;28;20417;-55
2022/03/04 08:29:48;;;;;;;27.08;13.02;;;0.20;99.90;;;;;;5030699;28;20041;-55
2022/03/04 08:32:16;;;;;;;35.65;14.02;;;0.40;99.90;;;;;;5031648;28;20449;-54
2022/03/04 08:34:44;;;;;;;36.05;14.55;;;0.50;99.90;;;;;;5031443;28;20052;-52
2022/03/04 08:37:11;;;;;;;30.75;14.30;;;0.60;99.90;;;;;;5056793;22;20049;-59
2022/03/04 08:39:38;;;;;;;29.67;14.18;;;0.70;99.90;;;;;;5042998;28;20051;-62
2022/03/04 08:42:07;;;;;;;30.17;13.25;;;0.80;99.90;;;;;;5051308;28;20041;-62
2022/03/04 08:44:34;;;;;;;29.92;13.82;;;0.90;99.90;;;;;;5050730;28;20048;-62
2022/03/04 08:47:03;;;;;;;29.58;12.80;;;0.90;99.90;;;;;;5032482;28;20044;-60
2022/03/04 08:49:30;;;;;;;28.65;13.30;;;1.00;99.90;;;;;;5023775;28;20037;-62
2022/03/04 08:51:57;;;;;;;32.15;14.55;;;1.00;99.90;;;;;;5031514;28;20090;-59
2022/03/04 08:54:24;;;;;;;31.52;14.75;;;1.10;99.90;;;;;;5031646;28;20072;-60
2022/03/04 08:56:51;;;;;;;31.05;13.48;;;1.20;99.90;;;;;;5031397;28;20041;-61
2022/03/04 08:59:18;;;;;;;30.70;14.40;;;1.30;99.90;;;;;;5022345;28;20570;-62
2022/03/04 09:01:45;;;;;;;28.63;10.88;;;1.40;99.90;;;;;;5031009;28;20045;-60
2022/03/04 09:04:14;;;;;;;32.08;14.02;;;1.50;99.90;;;;;;5031132;28;20050;-59
2022/03/04 09:06:41;;;;;;;34.10;14.60;;;1.60;99.90;;;;;;5029244;28;20085;-59
2022/03/04 09:09:08;;;;;;;29.73;14.15;;;1.70;99.90;;;;;;5030890;28;20052;-60
2022/03/04 09:11:36;;;;;;;25.88;13.13;;;1.70;99.90;;;;;;5031405;28;20049;-62
2022/03/04 09:14:03;;;;;;;28.60;15.05;;;1.80;99.90;;;;;;5030458;28;20450;-62
2022/03/04 09:16:30;;;;;;;32.63;14.68;;;1.90;99.90;;;;;;5023602;28;20045;-62
2022/03/04 09:18:58;;;;;;;31.73;15.00;;;1.90;99.90;;;;;;5030529;28;20056;-62
2022/03/04 09:21:26;;;;;;;34.30;15.75;;;1.90;99.90;;;;;;5031109;28;20053;-62
2022/03/04 09:23:53;;;;;;;33.47;15.60;;;2.00;99.90;;;;;;5030252;28;20502;-59
2022/03/04 09:26:21;;;;;;;38.17;16.42;;;2.00;99.90;;;;;;5030565;28;20128;-62
2022/03/04 09:28:47;;;;;;;28.83;11.88;;;2.10;99.90;;;;;;5030802;28;20054;-62
2022/03/04 09:31:14;;;;;;;40.15;15.88;;;2.00;99.90;;;;;;5031167;28;20061;-61
2022/03/04 09:33:41;;;;;;;33.92;15.38;;;1.90;99.90;;;;;;5028556;28;20038;-62
2022/03/04 09:36:11;;;;;;;31.65;15.35;;;1.80;99.90;;;;;;5030503;28;20430;-62
2022/03/04 09:38:39;;;;;;;31.50;16.20;;;1.80;99.90;;;;;;5030758;28;20100;-62
2022/03/04 09:41:06;;;;;;;34.75;17.55;;;1.90;99.90;;;;;;5027733;28;20037;-60
2022/03/04 09:43:34;;;;;;;42.20;17.02;;;2.00;99.90;;;;;;5031060;28;20449;-62
2022/03/04 09:46:01;;;;;;;38.63;16.25;;;2.20;99.90;;;;;;5030953;28;20050;-60
2022/03/04 09:48:28;;;;;;;35.63;16.85;;;2.30;99.90;;;;;;5027361;28;20511;-59
2022/03/04 09:50:55;;;;;;;;;;;2.30;99.90;;;;;;5027059;28;20048;-62
2022/03/04 09:53:22;;;;;;;40.33;17.85;;;2.40;99.90;;;;;;5030931;28;19974;-61
2022/03/04 09:55:49;;;;;;;33.60;15.90;;;2.40;99.90;;;;;;5028912;28;20049;-61
2022/03/04 09:58:17;;;;;;;35.92;16.27;;;2.40;99.90;;;;;;5028985;28;20120;-62
2022/03/04 10:00:46;;;;;;;39.00;15.85;;;2.50;99.90;;;;;;5031086;28;20052;-62
2022/03/04 10:03:31;;;;;;;39.05;15.85;;;2.60;99.90;;;;;;5030933;28;20072;-62
2022/03/04 10:06:00;;;;;;;35.70;16.58;;;2.70;99.90;;;;;;5024481;28;20033;-62
2022/03/04 10:08:27;;;;;;;42.10;17.23;;;2.80;99.90;;;;;;5022482;28;20486;-62
2022/03/04 10:10:55;;;;;;;;;;;2.90;99.90;;;;;;5031048;28;20521;-62
2022/03/04 10:13:45;;;;;;;23.70;11.80;;;2.90;99.90;;;;;;5031567;28;20271;-61
2022/03/04 10:16:25;;;;;;;32.55;16.08;;;3.10;99.90;;;;;;5026974;28;20041;-62
2022/03/04 10:19:09;;;;;;;39.13;16.92;;;3.20;99.90;;;;;;5033471;28;20127;-62
2022/03/04 10:21:58;;;;;;;34.38;16.38;;;3.30;99.90;;;;;;5034222;28;20490;-60
2022/03/04 10:24:33;;;;;;;37.80;16.13;;;3.40;99.90;;;;;;5031323;28;20104;-62
2022/03/04 10:27:08;;;;;;;33.85;16.38;;;3.40;99.90;;;;;;5030598;28;20034;-62
2022/03/04 10:29:46;;;;;;;33.50;16.92;;;3.40;99.90;;;;;;5033583;28;20052;-62
2022/03/04 10:32:26;;;;;;;35.50;16.83;;;3.40;99.90;;;;;;5033865;28;20524;-62
2022/03/04 10:34:58;;;;;;;36.05;16.95;;;3.40;99.90;;;;;;5015047;28;20391;-62
2022/03/04 10:37:44;;;;;;;36.85;17.08;;;3.50;99.90;;;;;;5025521;28;20057;-62
2022/03/04 10:40:24;;;;;;;37.63;16.83;;;3.60;99.90;;;;;;5033810;28;20107;-62
2022/03/04 10:42:59;;;;;;;40.92;17.55;;;3.60;99.90;;;;;;5032136;28;20063;-62
2022/03/04 10:45:44;;;;;;;35.97;16.75;;;3.70;99.90;;;;;;5025605;28;20401;-62
2022/03/04 10:48:15;;;;;;;35.25;18.15;;;3.90;99.90;;;;;;5033208;28;20128;-61
2022/03/04 10:50:43;;;;;;;36.72;17.40;;;4.00;99.90;;;;;;5033684;28;20120;-60
2022/03/04 10:53:16;;;;;;;34.03;16.83;;;4.00;99.90;;;;;;5028578;28;20038;-62
2022/03/04 10:55:44;;;;;;;34.63;16.70;;;4.20;99.90;;;;;;5033693;28;20052;-60
2022/03/04 10:58:18;;;;;;;33.78;16.58;;;4.20;99.90;;;;;;5032965;28;20049;-61
2022/03/04 11:00:54;;;;;;;39.03;17.50;;;4.30;99.50;;;;;;5033285;28;20116;-60
2022/03/04 11:03:29;;;;;;;34.92;18.08;;;4.40;99.90;;;;;;5025055;28;20037;-60
2022/03/04 11:06:07;;;;;;;32.63;16.67;;;4.40;99.80;;;;;;5033180;28;20041;-60
2022/03/04 11:08:34;;;;;;;36.63;18.75;;;4.40;99.40;;;;;;5032840;28;20528;-60
2022/03/04 11:11:02;;;;;;;41.00;17.98;;;4.40;99.80;;;;;;5030350;28;20482;-60
2022/03/04 11:13:32;;;;;;;30.70;15.57;;;4.40;99.90;;;;;;5033090;28;20060;-60
2022/03/04 11:16:03;;;;;;;38.22;16.65;;;4.60;99.90;;;;;;5033275;28;20042;-60
2022/03/04 11:18:29;;;;;;;34.35;16.13;;;4.80;99.20;;;;;;5026144;28;20490;-61
2022/03/04 11:20:58;;;;;;;38.03;16.77;;;4.90;98.20;;;;;;5033143;28;20445;-62
2022/03/04 11:23:30;;;;;;;31.42;15.52;;;4.80;98.40;;;;;;5033028;28;20041;-60
2022/03/04 11:25:59;;;;;;;33.45;15.73;;;4.80;96.60;;;;;;5031122;28;20056;-62
2022/03/04 11:28:44;;;;;;;30.38;16.25;;;4.80;97.60;;;;;;5024792;28;20063;-62
2022/03/04 11:31:20;;;;;;;33.47;16.25;;;4.80;97.90;;;;;;5032967;28;20120;-61
2022/03/04 11:34:01;;;;;;;31.27;16.05;;;4.80;98.20;;;;;;5030572;28;20029;-61
2022/03/04 11:36:34;;;;;;;34.63;17.60;;;4.90;97.10;;;;;;5024856;28;20045;-61
2022/03/04 11:39:09;;;;;;;28.90;14.85;;;4.80;96.80;;;;;;5032376;28;20505;-61
2022/03/04 11:42:00;;;;;;;32.22;16.63;;;4.80;95.40;;;;;;5029292;28;20084;-62
2022/03/04 11:44:27;;;;;;;32.28;16.30;;;4.80;94.90;;;;;;5024654;28;20049;-62
2022/03/04 11:47:04;;;;;;;34.30;16.00;;;4.90;94.90;;;;;;5032640;28;20445;-62
2022/03/04 11:49:46;;;;;;;34.30;16.95;;;4.90;95.60;;;;;;5032252;28;20429;-61
2022/03/04 11:52:26;;;;;;;34.25;17.40;;;5.10;96.50;;;;;;5030949;28;20053;-61
2022/03/04 11:54:56;;;;;;;34.28;15.43;;;5.10;95.00;;;;;;5032314;28;20524;-62
2022/03/04 11:57:28;;;;;;;32.53;15.18;;;5.20;94.30;;;;;;5032070;28;20049;-62
2022/03/04 12:00:06;;;;;;;33.80;14.98;;;5.30;93.60;;;;;;5011724;28;20076;-62
2022/03/04 12:02:54;;;;;;;32.83;16.05;;;5.40;93.30;;;;;;5032271;28;20037;-61
2022/03/04 12:05:28;;;;;;;38.47;15.52;;;5.40;94.00;;;;;;5032046;28;20053;-61
2022/03/04 12:07:55;;;;;;;33.10;15.48;;;5.30;92.00;;;;;;5031733;28;20037;-62
2022/03/04 12:10:30;;;;;;;29.20;15.60;;;5.40;93.10;;;;;;5013617;28;20410;-62
2022/03/04 12:13:12;;;;;;;33.20;15.23;;;5.60;92.80;;;;;;5032146;28;20049;-62
2022/03/04 12:15:41;;;;;;;36.63;15.70;;;5.50;91.90;;;;;;5032160;28;20046;-62
2022/03/04 12:18:16;;;;;;;33.53;16.85;;;5.50;91.10;;;;;;5031509;28;20057;-62
2022/03/04 12:20:43;;;;;;;31.25;16.45;;;5.50;91.40;;;;;;5025995;28;20045;-62
2022/03/04 12:23:28;;;;;;;30.48;15.80;;;5.50;91.40;;;;;;5031798;28;20236;-61
2022/03/04 12:25:58;;;;;;;33.63;15.70;;;5.60;91.70;;;;;;5032104;28;20052;-62
2022/03/04 12:28:34;;;;;;;33.22;14.95;;;5.70;90.50;;;;;;5024634;28;20501;-62
2022/03/04 12:31:01;;;;;;;45.80;15.77;;;5.80;89.10;;;;;;5031835;28;20410;-59
2022/03/04 12:33:36;;;;;;;35.40;15.60;;;5.90;90.20;;;;;;5032015;28;20049;-62
2022/03/04 12:36:05;;;;;;;30.95;15.98;;;5.90;87.80;;;;;;5024502;28;20554;-62
2022/03/04 12:38:41;;;;;;;29.17;14.18;;;5.90;87.30;;;;;;5031278;28;20494;-59
2022/03/04 12:41:16;;;;;;;35.83;15.23;;;6.00;85.10;;;;;;5031402;28;20076;-62
2022/03/04 12:43:56;;;;;;;32.45;14.85;;;6.00;88.80;;;;;;5031848;28;20383;-62
2022/03/04 12:46:30;;;;;;;32.85;14.70;;;6.00;86.40;;;;;;5030028;28;20042;-61